Darstellungsparameter: Aktuell verwendete Einstellungen:
Skalierung der Graphiken ... ?
xyx+y,   Skalierungsfaktor:      Skalierung: Modus: x, Faktor: 1
Darstellungszeitraum ... ?
Vom - - bis: - -   Zeitraum: 06.06.2004 - 12.06.2004
Min/Max/Avg-Anzeige ... ?
Zeige MMA aktuell
Zeige MMA Monat
Zeige MMA alles
Zeige --A aktuell
Zeige --A Monat
Zeige --A alles
Keine MMA-Anzeige
MMA:
Average (ber die Originaldaten)
MMA-Basis: 06.06.2004 - 12.06.2004
Quicknavigation für Darstellung... ?
Tage:      1T, 2T, 3T, 5T -1T -2T -3T -5T +1T +2T +3T +5T
Wochen: 1W, 2W, 3W -1W -2W -3W +1W +2W +3W
Monate: 1M, 3M, 6M -1M -3M -6M +1M +3M +6M
Jahre:    1J, 3J, 5J, 10J -1J -3J -5J -10J +1J +3J +5J +10J
Nutze für die Darstellung ... ?
Originaldaten oder Mittelwerte auf ...
Stundenbasis Tagesbasis Wochenbasis
Monatsbasis Jahresbasis      Datenbasis: Original-Daten
Darstellen als:
Statistik (Auto) Statistik J:M      Darstellung:
Zur Graphik,    zurück zur Übersicht aller Sensoren.
 
Tabellarische Datenbersicht: ?
 
Sensor: Nr:Datum:Temp:Abs-Feuchte:Windchill:Wind:
Aussen-T/F 1 06-06-2004 00:03:01 12.2 C 9.06 g/m*3 12.2 C 0 km/h
2 06-06-2004 00:15:02 12.1 C 9.01 g/m*3 12.1 C 0 km/h
3 06-06-2004 00:27:02 12.2 C 9.06 g/m*3 12.2 C 0 km/h
4 06-06-2004 00:39:01 12.2 C 9.06 g/m*3 12.2 C 0 km/h
5 06-06-2004 00:51:01 12 C 8.95 g/m*3 12 C 0 km/h
6 06-06-2004 01:03:01 11.5 C 8.78 g/m*3 11.5 C 0 km/h
7 06-06-2004 01:15:01 11.3 C 8.77 g/m*3 11.3 C 0 km/h
8 06-06-2004 01:27:01 11.1 C 8.66 g/m*3 11.1 C 0 km/h
9 06-06-2004 01:39:01 10.9 C 8.65 g/m*3 10.9 C 0 km/h
10 06-06-2004 01:51:01 10.7 C 8.64 g/m*3 10.7 C 0 km/h
11 06-06-2004 02:03:01 10.4 C 8.48 g/m*3 10.4 C 0 km/h
12 06-06-2004 02:15:01 10.4 C 8.58 g/m*3 10.4 C 0 km/h
13 06-06-2004 02:27:01 10.3 C 8.62 g/m*3 10.3 C 0 km/h
14 06-06-2004 02:39:01 10.1 C 8.51 g/m*3 10.1 C 0 km/h
15 06-06-2004 02:52:03 10 C 8.46 g/m*3 10 C 0 km/h
16 06-06-2004 03:04:03 10 C 8.55 g/m*3 10 C 0 km/h
17 06-06-2004 03:16:03 9.8 C 8.54 g/m*3 9.8 C 0 km/h
18 06-06-2004 03:28:03 9.6 C 8.43 g/m*3 9.6 C 0 km/h
19 06-06-2004 03:40:01 9.5 C 8.37 g/m*3 9.5 C 0 km/h
20 06-06-2004 03:52:01 9.4 C 8.23 g/m*3 9.4 C 0 km/h
21 06-06-2004 04:04:01 9.3 C 8.18 g/m*3 9.3 C 0 km/h
22 06-06-2004 04:16:01 9.2 C 8.22 g/m*3 9.2 C 0 km/h
23 06-06-2004 04:28:01 9.1 C 8.16 g/m*3 9.1 C 0 km/h
24 06-06-2004 04:40:01 8.9 C 8.15 g/m*3 8.9 C 0 km/h
25 06-06-2004 04:52:01 8.8 C 8.09 g/m*3 8.8 C 0 km/h
Sensor: Nr:Datum:Temp:Abs-Feuchte:Windchill:Wind:
Aussen-T/F 26 06-06-2004 05:04:01 8.9 C 8.23 g/m*3 8.9 C 0 km/h
27 06-06-2004 05:16:01 9 C 8.29 g/m*3 9 C 0 km/h
28 06-06-2004 05:28:01 8.9 C 8.32 g/m*3 8.9 C 0 km/h
29 06-06-2004 05:40:01 9 C 8.29 g/m*3 9 C 0 km/h
30 06-06-2004 05:52:01 9.1 C 8.34 g/m*3 9.1 C 0 km/h
31 06-06-2004 06:04:01 9.2 C 8.39 g/m*3 9.2 C 0 km/h
32 06-06-2004 06:16:00 9.5 C 8.65 g/m*3 9.5 C 0 km/h
33 06-06-2004 06:28:00 9.6 C 8.7 g/m*3 9.6 C 0 km/h
34 06-06-2004 06:40:00 9.7 C 8.76 g/m*3 9.7 C 0 km/h
35 06-06-2004 06:52:01 9.9 C 8.78 g/m*3 9.9 C 0 km/h
36 06-06-2004 07:04:01 10 C 8.74 g/m*3 10 C 0 km/h
37 06-06-2004 07:16:01 10.2 C 8.76 g/m*3 10.2 C 0 km/h
38 06-06-2004 07:28:01 10.5 C 8.83 g/m*3 10.5 C 0 km/h
39 06-06-2004 07:40:00 10.8 C 8.9 g/m*3 10.8 C 0 km/h
40 06-06-2004 07:52:01 10.7 C 8.84 g/m*3 10.7 C 0 km/h
41 06-06-2004 08:04:01 11.1 C 8.96 g/m*3 11.1 C 0 km/h
42 06-06-2004 08:16:01 11.2 C 8.92 g/m*3 11.2 C 0 km/h
43 06-06-2004 08:28:01 11.7 C 9.1 g/m*3 11.7 C 0 km/h
44 06-06-2004 08:40:00 12 C 9.06 g/m*3 12 C 0 km/h
45 06-06-2004 08:52:01 12 C 8.85 g/m*3 12 C 0 km/h
46 06-06-2004 09:04:01 12.1 C 8.79 g/m*3 12.1 C 0 km/h
47 06-06-2004 09:16:01 12.5 C 9.13 g/m*3 12.5 C 0 km/h
48 06-06-2004 09:28:01 12.9 C 9.13 g/m*3 12.9 C 0 km/h
49 06-06-2004 09:40:00 13.4 C 8.95 g/m*3 13.4 C 0 km/h
50 06-06-2004 09:52:01 13.9 C 8.99 g/m*3 13.9 C 0 km/h
Sensor: Nr:Datum:Temp:Abs-Feuchte:Windchill:Wind:
Aussen-T/F 51 06-06-2004 10:04:01 14.4 C 8.78 g/m*3 14.4 C 0 km/h
52 06-06-2004 10:16:02 15.2 C 9.09 g/m*3 15.2 C 0 km/h
53 06-06-2004 10:28:02 15.8 C 8.75 g/m*3 15.8 C 0 km/h
54 06-06-2004 10:40:01 16 C 8.72 g/m*3 16 C 0 km/h
55 06-06-2004 10:52:01 15.7 C 8.7 g/m*3 15.7 C 0 km/h
56 06-06-2004 11:04:02 15.8 C 9.29 g/m*3 15.8 C 0 km/h
57 06-06-2004 11:16:02 16.9 C 9.21 g/m*3 16.9 C 0 km/h
58 06-06-2004 11:28:03 17.4 C 9.19 g/m*3 17.4 C 0 km/h
59 06-06-2004 11:40:02 18.1 C 9.12 g/m*3 18.1 C 0 km/h
60 06-06-2004 11:52:01 19.2 C 9.4 g/m*3 19.2 C 0 km/h
61 06-06-2004 12:04:03 19.4 C 9.51 g/m*3 19.4 C 0 km/h
62 06-06-2004 12:16:01 19.7 C 9 g/m*3 19.7 C 0 km/h
63 06-06-2004 12:28:01 20.8 C 9.23 g/m*3 20.8 C 0 km/h
64 06-06-2004 12:40:02 20.1 C 8.34 g/m*3 20.1 C 0 km/h
65 06-06-2004 12:52:02 20 C 8.12 g/m*3 20 C 0 km/h
66 06-06-2004 13:04:03 20.5 C 7.65 g/m*3 20.5 C 0 km/h
67 06-06-2004 13:16:01 20.9 C 7.29 g/m*3 20.9 C 0 km/h
68 06-06-2004 13:28:01 22.2 C 7.07 g/m*3 22.2 C 0 km/h
69 06-06-2004 13:40:01 21.9 C 7.91 g/m*3 21.9 C 0 km/h
70 06-06-2004 13:52:01 21.6 C 7.02 g/m*3 21.6 C 0 km/h
71 06-06-2004 14:04:01 22.6 C 7.43 g/m*3 22.6 C 0 km/h
72 06-06-2004 14:16:01 22.7 C 7.68 g/m*3 22.7 C 0 km/h
73 06-06-2004 14:28:01 22.1 C 7.42 g/m*3 22.1 C 0 km/h
74 06-06-2004 14:40:01 22.1 C 7.81 g/m*3 22.1 C 0 km/h
75 06-06-2004 14:52:01 22.8 C 7.72 g/m*3 22.8 C 0 km/h
Sensor: Nr:Datum:Temp:Abs-Feuchte:Windchill:Wind:
Aussen-T/F 76 06-06-2004 15:04:01 23 C 7.6 g/m*3 23 C 0 km/h
77 06-06-2004 15:16:01 22.9 C 8.17 g/m*3 22.9 C 0 km/h
78 06-06-2004 15:28:01 24.3 C 7.75 g/m*3 24.3 C 0 km/h
79 06-06-2004 15:40:01 24.9 C 7.55 g/m*3 24.9 C 0 km/h
80 06-06-2004 15:52:01 25.4 C 7.53 g/m*3 25.4 C 0 km/h
81 06-06-2004 16:04:01 25.1 C 7.87 g/m*3 25.1 C 0 km/h
82 06-06-2004 16:16:01 26.8 C 7.89 g/m*3 26.8 C 0 km/h
83 06-06-2004 16:28:01 26.4 C 7.72 g/m*3 26.4 C 0 km/h
84 06-06-2004 16:40:01 25.6 C 8.57 g/m*3 25.6 C 0 km/h
85 06-06-2004 16:52:01 26.7 C 7.59 g/m*3 26.7 C 0 km/h
86 06-06-2004 17:04:01 26.1 C 7.59 g/m*3 26.1 C 0 km/h
87 06-06-2004 17:16:01 24.6 C 6.98 g/m*3 24.6 C 0 km/h
88 06-06-2004 17:28:01 25.7 C 7.18 g/m*3 25.7 C 0 km/h
89 06-06-2004 17:40:01 24.8 C 7.28 g/m*3 24.8 C 0 km/h
90 06-06-2004 17:52:01 24.4 C 7.79 g/m*3 24.4 C 0 km/h
91 06-06-2004 18:04:01 24.4 C 7.34 g/m*3 24.4 C 0 km/h
92 06-06-2004 18:16:01 24 C 7.4 g/m*3 24 C 0 km/h
93 06-06-2004 18:28:01 24.8 C 7.51 g/m*3 24.8 C 0 km/h
94 06-06-2004 18:40:01 25 C 7.37 g/m*3 25 C 0 km/h
95 06-06-2004 18:52:01 25.2 C 7.68 g/m*3 25.2 C 0 km/h
96 06-06-2004 19:04:01 25 C 7.14 g/m*3 25 C 0 km/h
97 06-06-2004 19:16:01 24.9 C 7.32 g/m*3 24.9 C 0 km/h
98 06-06-2004 19:28:01 24.5 C 7.39 g/m*3 24.5 C 0 km/h
99 06-06-2004 19:40:01 25.1 C 7.64 g/m*3 25.1 C 0 km/h
100 06-06-2004 19:52:01 24.5 C 7.61 g/m*3 24.5 C 0 km/h
Sensor: Nr:Datum:Temp:Abs-Feuchte:Windchill:Wind:
Aussen-T/F 101 06-06-2004 20:04:01 24.5 C 9.4 g/m*3 24.5 C 0 km/h
102 06-06-2004 20:16:01 24.4 C 9.35 g/m*3 24.4 C 0 km/h
103 06-06-2004 20:28:01 24.3 C 9.07 g/m*3 24.3 C 0 km/h
104 06-06-2004 20:40:01 23.4 C 9.46 g/m*3 23.4 C 0 km/h
105 06-06-2004 20:52:01 22.4 C 9.33 g/m*3 22.4 C 0 km/h
106 06-06-2004 21:04:01 21 C 9.53 g/m*3 21 C 0 km/h
107 06-06-2004 21:16:01 20.2 C 9.27 g/m*3 20.2 C 0 km/h
108 06-06-2004 21:28:01 19.3 C 9.29 g/m*3 19.3 C 0 km/h
109 06-06-2004 21:40:01 18.8 C 9.18 g/m*3 18.8 C 0 km/h
110 06-06-2004 21:52:01 18.5 C 9.33 g/m*3 18.5 C 0 km/h
111 06-06-2004 22:04:01 18.3 C 8.76 g/m*3 18.3 C 0 km/h
112 06-06-2004 22:16:01 17.9 C 9.01 g/m*3 17.9 C 0 km/h
113 06-06-2004 22:28:01 17.5 C 8.95 g/m*3 17.5 C 0 km/h
114 06-06-2004 22:40:01 17.3 C 8.99 g/m*3 17.3 C 0 km/h
115 06-06-2004 22:52:01 17 C 8.83 g/m*3 17 C 0 km/h
116 06-06-2004 23:04:01 16.6 C 9.04 g/m*3 16.6 C 0 km/h
117 06-06-2004 23:16:01 16.3 C 9.02 g/m*3 16.3 C 0 km/h
118 06-06-2004 23:28:01 15.9 C 9.07 g/m*3 15.9 C 0 km/h
119 06-06-2004 23:40:01 15.8 C 9.02 g/m*3 15.8 C 0 km/h
120 06-06-2004 23:52:01 15.4 C 8.93 g/m*3 15.4 C 0 km/h
121 07-06-2004 00:04:01 15.2 C 9.09 g/m*3 15.2 C 0 km/h
122 07-06-2004 00:16:01 15 C 9.1 g/m*3 15 C 0 km/h
123 07-06-2004 00:28:01 14.8 C 9.25 g/m*3 14.8 C 0 km/h
124 07-06-2004 00:40:01 14.7 C 9.19 g/m*3 14.7 C 0 km/h
125 07-06-2004 00:52:01 14.4 C 9.15 g/m*3 14.4 C 0 km/h
Sensor: Nr:Datum:Temp:Abs-Feuchte:Windchill:Wind:
Aussen-T/F 126 07-06-2004 01:04:01 14.2 C 9.16 g/m*3 14.2 C 0 km/h
127 07-06-2004 01:16:01 14 C 9.17 g/m*3 14 C 0 km/h
128 07-06-2004 01:28:01 14 C 9.17 g/m*3 14 C 0 km/h
129 07-06-2004 01:40:01 13.7 C 9.12 g/m*3 13.7 C 0 km/h
130 07-06-2004 01:52:01 13.3 C 9.01 g/m*3 13.3 C 0 km/h
131 07-06-2004 02:04:01 13.1 C 9.01 g/m*3 13.1 C 0 km/h
132 07-06-2004 02:16:01 13.1 C 9.01 g/m*3 13.1 C 0 km/h
133 07-06-2004 02:28:01 12.9 C 9.13 g/m*3 12.9 C 0 km/h
134 07-06-2004 02:40:01 12.9 C 9.13 g/m*3 12.9 C 0 km/h
135 07-06-2004 02:53:02 12.8 C 9.07 g/m*3 12.8 C 0 km/h
136 07-06-2004 03:05:02 12.5 C 8.91 g/m*3 12.5 C 0 km/h
137 07-06-2004 03:17:02 12.5 C 9.02 g/m*3 12.5 C 0 km/h
138 07-06-2004 03:29:02 12.3 C 8.9 g/m*3 12.3 C 0 km/h
139 07-06-2004 03:41:01 12.1 C 8.9 g/m*3 12.1 C 0 km/h
140 07-06-2004 03:53:01 12 C 8.85 g/m*3 12 C 0 km/h
141 07-06-2004 04:05:01 11.9 C 8.9 g/m*3 11.9 C 0 km/h
142 07-06-2004 04:17:01 11.8 C 8.84 g/m*3 11.8 C 0 km/h
143 07-06-2004 04:29:01 11.8 C 8.84 g/m*3 11.8 C 0 km/h
144 07-06-2004 04:41:01 11.7 C 8.79 g/m*3 11.7 C 0 km/h
145 07-06-2004 04:53:01 11.5 C 8.68 g/m*3 11.5 C 0 km/h
146 07-06-2004 05:05:01 11.4 C 8.72 g/m*3 11.4 C 0 km/h
147 07-06-2004 05:17:01 11.3 C 8.57 g/m*3 11.3 C 0 km/h
148 07-06-2004 05:29:01 11.2 C 8.51 g/m*3 11.2 C 0 km/h
149 07-06-2004 05:41:01 11.1 C 8.46 g/m*3 11.1 C 0 km/h
150 07-06-2004 05:53:01 11.1 C 8.46 g/m*3 11.1 C 0 km/h
Sensor: Nr:Datum:Temp:Abs-Feuchte:Windchill:Wind:
Aussen-T/F 151 07-06-2004 06:05:01 11 C 8.51 g/m*3 11 C 0 km/h
152 07-06-2004 06:17:01 11.1 C 8.56 g/m*3 11.1 C 0 km/h
153 07-06-2004 06:29:01 10.9 C 8.65 g/m*3 10.9 C 0 km/h
154 07-06-2004 06:41:01 11 C 8.71 g/m*3 11 C 0 km/h
155 07-06-2004 06:53:01 11.2 C 8.82 g/m*3 11.2 C 0 km/h
156 07-06-2004 07:05:01 11.4 C 8.83 g/m*3 11.4 C 0 km/h
157 07-06-2004 07:17:01 11.3 C 8.77 g/m*3 11.3 C 0 km/h
158 07-06-2004 07:29:01 11.5 C 8.88 g/m*3 11.5 C 0 km/h
159 07-06-2004 07:41:01 11.7 C 8.89 g/m*3 11.7 C 0 km/h
160 07-06-2004 07:53:01 11.8 C 8.95 g/m*3 11.8 C 0 km/h
161 07-06-2004 08:05:01 12.2 C 8.96 g/m*3 12.2 C 0 km/h
162 07-06-2004 08:17:01 12.5 C 8.91 g/m*3 12.5 C 0 km/h
163 07-06-2004 08:29:01 12.9 C 9.02 g/m*3 12.9 C 0 km/h
164 07-06-2004 08:41:01 13.3 C 9.01 g/m*3 13.3 C 0 km/h
165 07-06-2004 08:53:01 13.7 C 9.12 g/m*3 13.7 C 0 km/h
166 07-06-2004 09:05:01 14.2 C 9.16 g/m*3 14.2 C 0 km/h
167 07-06-2004 09:17:01 14.9 C 9.56 g/m*3 14.9 C 0 km/h
168 07-06-2004 09:29:01 15.6 C 9.44 g/m*3 15.6 C 0 km/h
169 07-06-2004 09:41:01 16.6 C 10.03 g/m*3 16.6 C 0 km/h
170 07-06-2004 09:53:01 17.4 C 10.23 g/m*3 17.4 C 0 km/h
171 07-06-2004 10:05:01 18.3 C 9.85 g/m*3 18.3 C 0 km/h
172 07-06-2004 10:17:01 19.1 C 10 g/m*3 19.1 C 0 km/h
173 07-06-2004 10:29:01 19.7 C 10.19 g/m*3 19.7 C 0 km/h
174 07-06-2004 10:41:01 20.7 C 10.62 g/m*3 20.7 C 0 km/h
175 07-06-2004 10:53:01 21.5 C 9.81 g/m*3 21.5 C 0 km/h
Sensor: Nr:Datum:Temp:Abs-Feuchte:Windchill:Wind:
Aussen-T/F 176 07-06-2004 11:05:01 22 C 9.51 g/m*3 22 C 0 km/h
177 07-06-2004 11:17:01 23.1 C 9.92 g/m*3 23.1 C 0 km/h
178 07-06-2004 11:29:01 23.7 C 9.63 g/m*3 23.7 C 0 km/h
179 07-06-2004 11:41:01 24.1 C 8.75 g/m*3 24.1 C 0 km/h
180 07-06-2004 11:53:01 24.8 C 8.42 g/m*3 24.8 C 0 km/h
181 07-06-2004 12:05:01 24.8 C 8.19 g/m*3 24.8 C 0 km/h
182 07-06-2004 12:17:01 25.6 C 7.62 g/m*3 25.6 C 0 km/h
183 07-06-2004 12:29:01 25.6 C 7.38 g/m*3 25.6 C 0 km/h
184 07-06-2004 12:41:02 26.7 C 7.85 g/m*3 26.7 C 0 km/h
185 07-06-2004 12:53:01 27.4 C 7.37 g/m*3 27.4 C 0 km/h
186 07-06-2004 13:05:02 26.4 C 6.97 g/m*3 26.4 C 0 km/h
187 07-06-2004 13:17:01 27.7 C 7.49 g/m*3 27.7 C 0 km/h
188 07-06-2004 13:29:01 29 C 7.18 g/m*3 29 C 0 km/h
189 07-06-2004 13:41:02 27.8 C 7.26 g/m*3 27.8 C 0 km/h
190 07-06-2004 13:53:02 28.7 C 7.06 g/m*3 28.7 C 0 km/h
191 07-06-2004 14:05:02 27.4 C 6.84 g/m*3 27.4 C 0 km/h
192 07-06-2004 14:17:02 27.3 C 7.85 g/m*3 27.3 C 0 km/h
193 07-06-2004 14:29:02 28 C 7.89 g/m*3 28 C 0 km/h
194 07-06-2004 14:41:02 28.4 C 7.78 g/m*3 28.4 C 0 km/h
195 07-06-2004 14:53:02 27.9 C 8.11 g/m*3 27.9 C 0 km/h
196 07-06-2004 15:05:02 28.8 C 7.67 g/m*3 28.8 C 0 km/h
197 07-06-2004 15:17:02 28.4 C 7.78 g/m*3 28.4 C 0 km/h
198 07-06-2004 15:29:02 29.3 C 7.59 g/m*3 29.3 C 0 km/h
199 07-06-2004 15:41:02 28.7 C 7.63 g/m*3 28.7 C 0 km/h
200 07-06-2004 15:53:01 29.2 C 7.55 g/m*3 29.2 C 0 km/h
Sensor: Nr:Datum:Temp:Abs-Feuchte:Windchill:Wind:
Aussen-T/F 201 07-06-2004 16:05:01 29.5 C 7.38 g/m*3 29.5 C 0 km/h
202 07-06-2004 16:17:01 29.5 C 7.67 g/m*3 29.5 C 0 km/h
203 07-06-2004 16:29:01 30 C 7.88 g/m*3 30 C 0 km/h
204 07-06-2004 16:41:01 30.3 C 8.01 g/m*3 30.3 C 0 km/h
205 07-06-2004 16:53:01 30.3 C 7.4 g/m*3 30.3 C 0 km/h
206 07-06-2004 17:05:01 30.4 C 7.44 g/m*3 30.4 C 0 km/h
207 07-06-2004 17:17:01 30.4 C 7.13 g/m*3 30.4 C 0 km/h
208 07-06-2004 17:29:01 30.6 C 6.89 g/m*3 30.6 C 0 km/h
209 07-06-2004 17:41:01 30.1 C 7.01 g/m*3 30.1 C 0 km/h
210 07-06-2004 17:53:01 30.1 C 7.32 g/m*3 30.1 C 0 km/h
211 07-06-2004 18:05:01 30.2 C 7.36 g/m*3 30.2 C 0 km/h
212 07-06-2004 18:17:01 30.6 C 7.2 g/m*3 30.6 C 0 km/h
213 07-06-2004 18:29:01 30.9 C 7 g/m*3 30.9 C 0 km/h
214 07-06-2004 18:41:01 30.6 C 7.2 g/m*3 30.6 C 0 km/h
215 07-06-2004 18:53:01 30.6 C 7.2 g/m*3 30.6 C 0 km/h
216 07-06-2004 19:05:01 30.3 C 7.7 g/m*3 30.3 C 0 km/h
217 07-06-2004 19:17:01 30.3 C 8.01 g/m*3 30.3 C 0 km/h
218 07-06-2004 19:29:01 29.9 C 9.05 g/m*3 29.9 C 0 km/h
219 07-06-2004 19:41:01 30.4 C 9.61 g/m*3 30.4 C 0 km/h
220 07-06-2004 19:53:01 30.3 C 9.55 g/m*3 30.3 C 0 km/h
221 07-06-2004 20:05:01 29.8 C 10.5 g/m*3 29.8 C 0 km/h
222 07-06-2004 20:17:01 28.6 C 10.12 g/m*3 28.6 C 0 km/h
223 07-06-2004 20:29:01 28.1 C 9.57 g/m*3 28.1 C 0 km/h
224 07-06-2004 20:41:01 27.4 C 9.47 g/m*3 27.4 C 0 km/h
225 07-06-2004 20:53:01 26.6 C 9.57 g/m*3 26.6 C 0 km/h
Sensor: Nr:Datum:Temp:Abs-Feuchte:Windchill:Wind:
Aussen-T/F 226 07-06-2004 21:05:01 25.1 C 9.49 g/m*3 25.1 C 0 km/h
227 07-06-2004 21:17:01 24.1 C 9.41 g/m*3 24.1 C 0 km/h
228 07-06-2004 21:29:01 23.6 C 10 g/m*3 23.6 C 0 km/h
229 07-06-2004 21:41:01 23 C 10.28 g/m*3 23 C 0 km/h
230 07-06-2004 21:53:01 22.8 C 10.57 g/m*3 22.8 C 0 km/h
231 07-06-2004 22:05:01 22.4 C 10.53 g/m*3 22.4 C 0 km/h
232 07-06-2004 22:17:01 22.2 C 10.41 g/m*3 22.2 C 0 km/h
233 07-06-2004 22:29:01 21.9 C 10.23 g/m*3 21.9 C 0 km/h
234 07-06-2004 22:41:01 21.1 C 9.77 g/m*3 21.1 C 0 km/h
235 07-06-2004 22:53:01 21.1 C 10.32 g/m*3 21.1 C 0 km/h
236 07-06-2004 23:05:01 20.6 C 10.56 g/m*3 20.6 C 0 km/h
237 07-06-2004 23:17:01 20.1 C 10.26 g/m*3 20.1 C 0 km/h
238 07-06-2004 23:29:01 19.8 C 10.59 g/m*3 19.8 C 0 km/h
239 07-06-2004 23:41:01 19.5 C 10.41 g/m*3 19.5 C 0 km/h
240 07-06-2004 23:53:01 19.5 C 10.57 g/m*3 19.5 C 0 km/h
241 08-06-2004 00:05:01 19.1 C 10.49 g/m*3 19.1 C 0 km/h
242 08-06-2004 00:17:01 18.8 C 10.63 g/m*3 18.8 C 0 km/h
243 08-06-2004 00:29:01 18.7 C 10.57 g/m*3 18.7 C 0 km/h
244 08-06-2004 00:41:00 18.4 C 10.38 g/m*3 18.4 C 0 km/h
245 08-06-2004 00:53:01 18.3 C 10.48 g/m*3 18.3 C 0 km/h
246 08-06-2004 01:05:01 17.9 C 10.38 g/m*3 17.9 C 0 km/h
247 08-06-2004 01:17:01 17.9 C 10.54 g/m*3 17.9 C 0 km/h
248 08-06-2004 01:29:01 17.7 C 10.56 g/m*3 17.7 C 0 km/h
249 08-06-2004 01:41:01 17.5 C 10.73 g/m*3 17.5 C 0 km/h
250 08-06-2004 01:53:01 17.4 C 10.52 g/m*3 17.4 C 0 km/h
Sensor: Nr:Datum:Temp:Abs-Feuchte:Windchill:Wind:
Aussen-T/F 251 08-06-2004 02:05:01 16.8 C 10.44 g/m*3 16.8 C 0 km/h
252 08-06-2004 02:17:01 16.7 C 10.52 g/m*3 16.7 C 0 km/h
253 08-06-2004 02:29:01 16.6 C 10.45 g/m*3 16.6 C 0 km/h
254 08-06-2004 02:41:01 16.6 C 10.45 g/m*3 16.6 C 0 km/h
255 08-06-2004 02:54:03 16.2 C 10.34 g/m*3 16.2 C 0 km/h
256 08-06-2004 03:06:03 16 C 10.49 g/m*3 16 C 0 km/h
257 08-06-2004 03:18:03 16 C 10.35 g/m*3 16 C 0 km/h
258 08-06-2004 03:30:03 15.7 C 10.3 g/m*3 15.7 C 0 km/h
259 08-06-2004 03:42:01 15.6 C 10.37 g/m*3 15.6 C 0 km/h
260 08-06-2004 03:54:01 15.5 C 10.44 g/m*3 15.5 C 0 km/h
261 08-06-2004 04:06:01 15.2 C 10.25 g/m*3 15.2 C 0 km/h
262 08-06-2004 04:18:01 14.9 C 10.32 g/m*3 14.9 C 0 km/h
263 08-06-2004 04:30:01 14.8 C 10.26 g/m*3 14.8 C 0 km/h
264 08-06-2004 04:42:01 14.9 C 10.32 g/m*3 14.9 C 0 km/h
265 08-06-2004 04:54:01 14.7 C 10.2 g/m*3 14.7 C 0 km/h
266 08-06-2004 05:06:01 14.7 C 10.2 g/m*3 14.7 C 0 km/h
267 08-06-2004 05:18:01 14.6 C 10.14 g/m*3 14.6 C 0 km/h
268 08-06-2004 05:30:01 14.6 C 10.14 g/m*3 14.6 C 0 km/h
269 08-06-2004 05:42:01 14.5 C 10.07 g/m*3 14.5 C 0 km/h
270 08-06-2004 05:54:01 14.5 C 10.07 g/m*3 14.5 C 0 km/h
271 08-06-2004 06:06:01 14.1 C 9.95 g/m*3 14.1 C 0 km/h
272 08-06-2004 06:18:01 14 C 10.01 g/m*3 14 C 0 km/h
273 08-06-2004 06:30:01 14 C 10.13 g/m*3 14 C 0 km/h
274 08-06-2004 06:42:01 14.2 C 10.26 g/m*3 14.2 C 0 km/h
275 08-06-2004 06:54:01 14.3 C 10.2 g/m*3 14.3 C 0 km/h
Sensor: Nr:Datum:Temp:Abs-Feuchte:Windchill:Wind:
Aussen-T/F 276 08-06-2004 07:06:01 14.6 C 10.39 g/m*3 14.6 C 0 km/h
277 08-06-2004 07:18:01 14.9 C 10.45 g/m*3 14.9 C 0 km/h
278 08-06-2004 07:30:01 15.2 C 10.38 g/m*3 15.2 C 0 km/h
279 08-06-2004 07:42:01 15.6 C 10.37 g/m*3 15.6 C 0 km/h
280 08-06-2004 07:54:01 15.8 C 10.36 g/m*3 15.8 C 0 km/h
281 08-06-2004 08:06:01 16.1 C 10.28 g/m*3 16.1 C 0 km/h
282 08-06-2004 08:18:01 16.4 C 10.33 g/m*3 16.4 C 0 km/h
283 08-06-2004 08:30:01 16.7 C 10.66 g/m*3 16.7 C 0 km/h
284 08-06-2004 08:42:01 17 C 10.42 g/m*3 17 C 0 km/h
285 08-06-2004 08:54:01 17.4 C 10.97 g/m*3 17.4 C 0 km/h
286 08-06-2004 09:06:01 18.1 C 11.12 g/m*3 18.1 C 0 km/h
287 08-06-2004 09:18:01 18.8 C 11.11 g/m*3 18.8 C 0 km/h
288 08-06-2004 09:30:01 19.7 C 11.38 g/m*3 19.7 C 0 km/h
289 08-06-2004 09:42:01 20.6 C 11.45 g/m*3 20.6 C 0 km/h
290 08-06-2004 09:54:01 21.3 C 11.74 g/m*3 21.3 C 0 km/h
291 08-06-2004 10:06:01 22 C 11.06 g/m*3 22 C 0 km/h
292 08-06-2004 10:18:01 22.7 C 11.72 g/m*3 22.7 C 0 km/h
293 08-06-2004 10:30:01 23.2 C 11.23 g/m*3 23.2 C 0 km/h
294 08-06-2004 10:42:01 24.1 C 11.82 g/m*3 24.1 C 0 km/h
295 08-06-2004 10:54:01 25 C 11.74 g/m*3 25 C 0 km/h
296 08-06-2004 11:06:01 25.1 C 11.11 g/m*3 25.1 C 0 km/h
297 08-06-2004 11:18:01 25.7 C 10.77 g/m*3 25.7 C 0 km/h
298 08-06-2004 11:30:01 26.3 C 10.64 g/m*3 26.3 C 0 km/h
299 08-06-2004 11:42:01 26.7 C 10.63 g/m*3 26.7 C 0 km/h
300 08-06-2004 11:54:01 27.1 C 10.09 g/m*3 27.1 C 0 km/h
Sensor: Nr:Datum:Temp:Abs-Feuchte:Windchill:Wind:
Aussen-T/F 301 08-06-2004 12:06:01 27.8 C 9.95 g/m*3 27.8 C 0 km/h
302 08-06-2004 12:18:01 28.4 C 9.73 g/m*3 28.4 C 0 km/h
303 08-06-2004 12:30:01 28.6 C 9.27 g/m*3 28.6 C 0 km/h
304 08-06-2004 12:42:02 29.3 C 9.34 g/m*3 29.3 C 0 km/h
305 08-06-2004 12:54:01 29.2 C 8.71 g/m*3 29.2 C 0 km/h
306 08-06-2004 13:06:02 29.9 C 9.35 g/m*3 29.9 C 0 km/h
307 08-06-2004 13:18:02 30.4 C 9.3 g/m*3 30.4 C 0 km/h
308 08-06-2004 13:30:02 30.7 C 8.19 g/m*3 30.7 C 0 km/h
309 08-06-2004 13:42:02 30.9 C 7.96 g/m*3 30.9 C 0 km/h
310 08-06-2004 13:54:01 30.6 C 7.83 g/m*3 30.6 C 0 km/h
311 08-06-2004 14:06:01 30.6 C 8.14 g/m*3 30.6 C 0 km/h
312 08-06-2004 14:18:01 30.6 C 7.83 g/m*3 30.6 C 0 km/h
313 08-06-2004 14:30:01 30.4 C 7.75 g/m*3 30.4 C 0 km/h
314 08-06-2004 14:42:01 30.7 C 7.87 g/m*3 30.7 C 0 km/h
315 08-06-2004 14:54:01 31 C 8 g/m*3 31 C 0 km/h
316 08-06-2004 15:06:01 30.9 C 7.96 g/m*3 30.9 C 0 km/h
317 08-06-2004 15:18:01 31.1 C 7.72 g/m*3 31.1 C 0 km/h
318 08-06-2004 15:30:01 31.1 C 7.72 g/m*3 31.1 C 0 km/h
319 08-06-2004 15:42:01 31.4 C 7.85 g/m*3 31.4 C 0 km/h
320 08-06-2004 15:54:01 31.4 C 7.52 g/m*3 31.4 C 0 km/h
321 08-06-2004 16:06:01 31.4 C 7.85 g/m*3 31.4 C 0 km/h
322 08-06-2004 16:18:01 31.5 C 7.89 g/m*3 31.5 C 0 km/h
323 08-06-2004 16:30:01 31.8 C 7.68 g/m*3 31.8 C 0 km/h
324 08-06-2004 16:42:01 31.6 C 7.6 g/m*3 31.6 C 0 km/h
325 08-06-2004 16:54:01 32.4 C 7.93 g/m*3 32.4 C 0 km/h
Sensor: Nr:Datum:Temp:Abs-Feuchte:Windchill:Wind:
Aussen-T/F 326 08-06-2004 17:06:01 32 C 7.76 g/m*3 32 C 0 km/h
327 08-06-2004 17:18:01 32 C 8.44 g/m*3 32 C 0 km/h
328 08-06-2004 17:30:01 32 C 7.76 g/m*3 32 C 0 km/h
329 08-06-2004 17:42:03 32.3 C 8.58 g/m*3 32.3 C 0 km/h
330 08-06-2004 17:54:02 32.3 C 8.58 g/m*3 32.3 C 0 km/h
331 08-06-2004 18:06:02 32.5 C 8.67 g/m*3 32.5 C 0 km/h
332 08-06-2004 18:18:02 32.3 C 8.58 g/m*3 32.3 C 0 km/h
333 08-06-2004 18:30:02 32.3 C 8.58 g/m*3 32.3 C 0 km/h
334 08-06-2004 18:42:04 32.3 C 8.58 g/m*3 32.3 C 0 km/h
335 08-06-2004 18:54:03 32.1 C 8.82 g/m*3 32.1 C 0 km/h
336 08-06-2004 19:06:03 32.3 C 7.89 g/m*3 32.3 C 0 km/h
337 08-06-2004 19:18:03 32.4 C 8.62 g/m*3 32.4 C 0 km/h
338 08-06-2004 19:30:03 32.1 C 9.84 g/m*3 32.1 C 0 km/h
339 08-06-2004 19:42:03 31.9 C 10.41 g/m*3 31.9 C 0 km/h
340 08-06-2004 19:54:04 31.5 C 9.86 g/m*3 31.5 C 0 km/h
341 08-06-2004 20:06:02 31.2 C 10.35 g/m*3 31.2 C 0 km/h
342 08-06-2004 20:18:01 30.8 C 10.45 g/m*3 30.8 C 0 km/h
343 08-06-2004 20:30:01 30.4 C 10.85 g/m*3 30.4 C 0 km/h
344 08-06-2004 20:42:01 29.8 C 11.1 g/m*3 29.8 C 0 km/h
345 08-06-2004 20:54:01 28.9 C 11.14 g/m*3 28.9 C 0 km/h
346 08-06-2004 21:06:01 27.6 C 11.17 g/m*3 27.6 C 0 km/h
347 08-06-2004 21:18:01 27.3 C 11.51 g/m*3 27.3 C 0 km/h
348 08-06-2004 21:30:01 26.9 C 11.77 g/m*3 26.9 C 0 km/h
349 08-06-2004 21:42:01 26.5 C 11.77 g/m*3 26.5 C 0 km/h
350 08-06-2004 21:54:01 25.7 C 11.97 g/m*3 25.7 C 0 km/h
Sensor: Nr:Datum:Temp:Abs-Feuchte:Windchill:Wind:
Aussen-T/F 351 08-06-2004 22:06:01 25.3 C 11.94 g/m*3 25.3 C 0 km/h
352 08-06-2004 22:18:02 24.9 C 11.67 g/m*3 24.9 C 0 km/h
353 08-06-2004 22:30:02 24.7 C 12 g/m*3 24.7 C 0 km/h
354 08-06-2004 22:42:01 24.5 C 11.86 g/m*3 24.5 C 0 km/h
355 08-06-2004 22:54:01 24.2 C 11.88 g/m*3 24.2 C 0 km/h
356 08-06-2004 23:06:01 24.1 C 12.03 g/m*3 24.1 C 0 km/h
357 08-06-2004 23:18:02 23.6 C 11.91 g/m*3 23.6 C 0 km/h
358 08-06-2004 23:30:02 23.2 C 12.06 g/m*3 23.2 C 0 km/h
359 08-06-2004 23:42:02 23 C 12.33 g/m*3 23 C 0 km/h
360 08-06-2004 23:54:02 22.8 C 12.6 g/m*3 22.8 C 0 km/h
361 09-06-2004 00:06:02 22.6 C 12.25 g/m*3 22.6 C 0 km/h
362 09-06-2004 00:18:02 22.4 C 12.31 g/m*3 22.4 C 0 km/h
363 09-06-2004 00:30:02 22 C 12.03 g/m*3 22 C 0 km/h
364 09-06-2004 00:42:02 21.4 C 12.19 g/m*3 21.4 C 0 km/h
365 09-06-2004 00:54:01 21 C 12.09 g/m*3 21 C 0 km/h
366 09-06-2004 01:06:01 21 C 11.91 g/m*3 21 C 0 km/h
367 09-06-2004 01:18:01 21.1 C 12.34 g/m*3 21.1 C 0 km/h
368 09-06-2004 01:30:01 20.9 C 12.02 g/m*3 20.9 C 0 km/h
369 09-06-2004 01:42:01 20.6 C 11.99 g/m*3 20.6 C 0 km/h
370 09-06-2004 01:54:01 20.3 C 11.96 g/m*3 20.3 C 0 km/h
371 09-06-2004 02:06:01 20.3 C 11.96 g/m*3 20.3 C 0 km/h
372 09-06-2004 02:18:01 19.9 C 12.03 g/m*3 19.9 C 0 km/h
373 09-06-2004 02:30:01 19.9 C 12.03 g/m*3 19.9 C 0 km/h
374 09-06-2004 02:42:01 19.7 C 12.06 g/m*3 19.7 C 0 km/h
375 09-06-2004 02:55:03 19.6 C 11.99 g/m*3 19.6 C 0 km/h
Sensor: Nr:Datum:Temp:Abs-Feuchte:Windchill:Wind:
Aussen-T/F 376 09-06-2004 03:07:03 19.5 C 11.92 g/m*3 19.5 C 0 km/h
377 09-06-2004 03:19:03 19.3 C 11.78 g/m*3 19.3 C 0 km/h
378 09-06-2004 03:31:01 19.2 C 11.87 g/m*3 19.2 C 0 km/h
379 09-06-2004 03:43:01 19.1 C 11.8 g/m*3 19.1 C 0 km/h
380 09-06-2004 03:55:01 18.8 C 11.92 g/m*3 18.8 C 0 km/h
381 09-06-2004 04:07:01 18.7 C 11.85 g/m*3 18.7 C 0 km/h
382 09-06-2004 04:19:01 18.4 C 11.8 g/m*3 18.4 C 0 km/h
383 09-06-2004 04:31:01 18.3 C 11.88 g/m*3 18.3 C 0 km/h
384 09-06-2004 04:43:01 18.1 C 11.74 g/m*3 18.1 C 0 km/h
385 09-06-2004 04:55:01 18.2 C 11.81 g/m*3 18.2 C 0 km/h
386 09-06-2004 05:07:01 17.8 C 11.84 g/m*3 17.8 C 0 km/h
387 09-06-2004 05:19:01 17.6 C 11.7 g/m*3 17.6 C 0 km/h
388 09-06-2004 05:31:01 17.5 C 11.63 g/m*3 17.5 C 0 km/h
389 09-06-2004 05:43:01 17.6 C 11.85 g/m*3 17.6 C 0 km/h
390 09-06-2004 05:55:01 17.5 C 11.78 g/m*3 17.5 C 0 km/h
391 09-06-2004 06:07:01 17.6 C 11.85 g/m*3 17.6 C 0 km/h
392 09-06-2004 06:19:01 17.7 C 11.62 g/m*3 17.7 C 0 km/h
393 09-06-2004 06:31:01 17.6 C 11.7 g/m*3 17.6 C 0 km/h
394 09-06-2004 06:43:01 17.8 C 11.84 g/m*3 17.8 C 0 km/h
395 09-06-2004 06:55:01 18.1 C 11.74 g/m*3 18.1 C 0 km/h
396 09-06-2004 07:07:01 18.3 C 11.73 g/m*3 18.3 C 0 km/h
397 09-06-2004 07:19:01 18.5 C 11.71 g/m*3 18.5 C 0 km/h
398 09-06-2004 07:31:01 18.9 C 12.15 g/m*3 18.9 C 0 km/h
399 09-06-2004 07:43:01 19.2 C 12.2 g/m*3 19.2 C 0 km/h
400 09-06-2004 07:55:01 19.5 C 12.25 g/m*3 19.5 C 0 km/h
Sensor: Nr:Datum:Temp:Abs-Feuchte:Windchill:Wind:
Aussen-T/F 401 09-06-2004 08:07:01 19.8 C 12.3 g/m*3 19.8 C 0 km/h
402 09-06-2004 08:19:01 20.3 C 12.49 g/m*3 20.3 C 0 km/h
403 09-06-2004 08:31:01 20.6 C 12.35 g/m*3 20.6 C 0 km/h
404 09-06-2004 08:43:01 21.1 C 12.34 g/m*3 21.1 C 0 km/h
405 09-06-2004 08:55:01 21.6 C 12.71 g/m*3 21.6 C 0 km/h
406 09-06-2004 09:07:01 22.1 C 12.69 g/m*3 22.1 C 0 km/h
407 09-06-2004 09:19:01 22.6 C 13.26 g/m*3 22.6 C 0 km/h
408 09-06-2004 09:31:00 23.3 C 12.55 g/m*3 23.3 C 0 km/h
409 09-06-2004 09:43:00 24.1 C 12.69 g/m*3 24.1 C 0 km/h
410 09-06-2004 09:55:01 24.6 C 12.83 g/m*3 24.6 C 0 km/h
411 09-06-2004 10:07:01 25.1 C 12.96 g/m*3 25.1 C 0 km/h
412 09-06-2004 10:19:01 25.4 C 13.18 g/m*3 25.4 C 0 km/h
413 09-06-2004 10:31:01 26 C 12.66 g/m*3 26 C 0 km/h
414 09-06-2004 10:43:01 26.6 C 12.84 g/m*3 26.6 C 0 km/h
415 09-06-2004 10:55:01 27.6 C 13.57 g/m*3 27.6 C 0 km/h
416 09-06-2004 11:07:01 27.9 C 12.98 g/m*3 27.9 C 0 km/h
417 09-06-2004 11:19:01 28.8 C 13.07 g/m*3 28.8 C 0 km/h
418 09-06-2004 11:31:01 29.3 C 13.14 g/m*3 29.3 C 0 km/h
419 09-06-2004 11:43:01 30 C 12.43 g/m*3 30 C 0 km/h
420 09-06-2004 11:55:01 30.3 C 13.87 g/m*3 30.3 C 0 km/h
421 09-06-2004 12:07:01 30.2 C 14.1 g/m*3 30.2 C 0 km/h
422 09-06-2004 12:19:01 30.6 C 13.16 g/m*3 30.6 C 0 km/h
423 09-06-2004 12:31:01 31 C 12.16 g/m*3 31 C 0 km/h
424 09-06-2004 12:43:01 30.7 C 11.65 g/m*3 30.7 C 0 km/h
425 09-06-2004 12:55:01 30.4 C 12.08 g/m*3 30.4 C 0 km/h
Sensor: Nr:Datum:Temp:Abs-Feuchte:Windchill:Wind:
Aussen-T/F 426 09-06-2004 13:07:01 30.7 C 11.34 g/m*3 30.7 C 0 km/h
427 09-06-2004 13:19:01 31.3 C 10.73 g/m*3 31.3 C 0 km/h
428 09-06-2004 13:31:01 31.3 C 10.73 g/m*3 31.3 C 0 km/h
429 09-06-2004 13:43:01 32 C 11.14 g/m*3 32 C 0 km/h
430 09-06-2004 13:55:01 31.7 C 10.63 g/m*3 31.7 C 0 km/h
431 09-06-2004 14:07:01 31.6 C 10.91 g/m*3 31.6 C 0 km/h
432 09-06-2004 14:19:01 31.5 C 10.19 g/m*3 31.5 C 0 km/h
433 09-06-2004 14:31:01 31.8 C 10.69 g/m*3 31.8 C 0 km/h
434 09-06-2004 14:43:01 31.2 C 11 g/m*3 31.2 C 0 km/h
435 09-06-2004 14:55:01 31.1 C 10.62 g/m*3 31.1 C 0 km/h
436 09-06-2004 15:07:02 31.8 C 10.35 g/m*3 31.8 C 0 km/h
437 09-06-2004 15:19:01 31.9 C 9.4 g/m*3 31.9 C 0 km/h
438 09-06-2004 15:31:01 31.4 C 9.81 g/m*3 31.4 C 0 km/h
439 09-06-2004 15:43:01 30.6 C 10.65 g/m*3 30.6 C 0 km/h
440 09-06-2004 15:55:02 28.9 C 16.28 g/m*3 28.9 C 0 km/h
441 09-06-2004 16:07:02 28.8 C 16.19 g/m*3 28.8 C 0 km/h
442 09-06-2004 16:19:02 29.6 C 12.76 g/m*3 29.6 C 0 km/h
443 09-06-2004 16:31:02 29.5 C 15.35 g/m*3 29.5 C 0 km/h
444 09-06-2004 16:43:02 26.6 C 11.33 g/m*3 26.6 C 0 km/h
445 09-06-2004 16:55:02 27.7 C 12.3 g/m*3 27.7 C 0 km/h
446 09-06-2004 17:07:02 30.6 C 11.59 g/m*3 30.6 C 0 km/h
447 09-06-2004 17:19:02 31.3 C 11.06 g/m*3 31.3 C 0 km/h
448 09-06-2004 17:31:02 31.7 C 10.63 g/m*3 31.7 C 0 km/h
449 09-06-2004 17:43:02 31.6 C 11.24 g/m*3 31.6 C 0 km/h
450 09-06-2004 17:55:01 31.4 C 12.75 g/m*3 31.4 C 0 km/h
Sensor: Nr:Datum:Temp:Abs-Feuchte:Windchill:Wind:
Aussen-T/F 451 09-06-2004 18:07:01 31.5 C 13.15 g/m*3 31.5 C 0 km/h
452 09-06-2004 18:19:01 31 C 13.44 g/m*3 31 C 0 km/h
453 09-06-2004 18:31:01 30.4 C 13.32 g/m*3 30.4 C 0 km/h
454 09-06-2004 18:43:01 29 C 13.21 g/m*3 29 C 0 km/h
455 09-06-2004 18:55:01 28.8 C 13.92 g/m*3 28.8 C 0 km/h
456 09-06-2004 19:07:01 28.7 C 13.85 g/m*3 28.7 C 0 km/h
457 09-06-2004 19:19:01 28.2 C 13.75 g/m*3 28.2 C 0 km/h
458 09-06-2004 19:31:01 28.4 C 13.9 g/m*3 28.4 C 0 km/h
459 09-06-2004 19:43:01 28 C 13.6 g/m*3 28 C 0 km/h
460 09-06-2004 19:55:01 28.3 C 13.82 g/m*3 28.3 C 0 km/h
461 09-06-2004 20:07:01 27.9 C 14.33 g/m*3 27.9 C 0 km/h
462 09-06-2004 20:19:01 27.2 C 14.57 g/m*3 27.2 C 0 km/h
463 09-06-2004 20:31:01 26.6 C 14.85 g/m*3 26.6 C 0 km/h
464 09-06-2004 20:43:01 25.6 C 14.76 g/m*3 25.6 C 0 km/h
465 09-06-2004 20:55:01 25.2 C 14.43 g/m*3 25.2 C 0 km/h
466 09-06-2004 21:07:01 24.9 C 14.42 g/m*3 24.9 C 0 km/h
467 09-06-2004 21:19:01 24.8 C 14.34 g/m*3 24.8 C 0 km/h
468 09-06-2004 21:31:01 24.5 C 14.1 g/m*3 24.5 C 0 km/h
469 09-06-2004 21:43:01 24.3 C 14.16 g/m*3 24.3 C 0 km/h
470 09-06-2004 21:55:01 24.1 C 14.22 g/m*3 24.1 C 0 km/h
471 09-06-2004 22:07:01 23.9 C 14.49 g/m*3 23.9 C 0 km/h
472 09-06-2004 22:19:01 23.9 C 14.71 g/m*3 23.9 C 0 km/h
473 09-06-2004 22:31:01 23.6 C 14.68 g/m*3 23.6 C 0 km/h
474 09-06-2004 22:43:01 23.6 C 14.68 g/m*3 23.6 C 0 km/h
475 09-06-2004 22:55:01 23.6 C 14.68 g/m*3 23.6 C 0 km/h
Sensor: Nr:Datum:Temp:Abs-Feuchte:Windchill:Wind:
Aussen-T/F 476 09-06-2004 23:07:01 23.3 C 14.64 g/m*3 23.3 C 0 km/h
477 09-06-2004 23:19:01 22.9 C 14.71 g/m*3 22.9 C 0 km/h
478 09-06-2004 23:31:01 22.6 C 14.66 g/m*3 22.6 C 0 km/h
479 09-06-2004 23:43:01 22.4 C 14.7 g/m*3 22.4 C 0 km/h
480 09-06-2004 23:55:01 21.9 C 14.67 g/m*3 21.9 C 0 km/h
481 10-06-2004 00:07:01 21.7 C 14.69 g/m*3 21.7 C 0 km/h
482 10-06-2004 00:19:01 21.6 C 14.79 g/m*3 21.6 C 0 km/h
483 10-06-2004 00:31:01 21.6 C 14.6 g/m*3 21.6 C 0 km/h
484 10-06-2004 00:43:01 21.6 C 14.6 g/m*3 21.6 C 0 km/h
485 10-06-2004 00:55:01 21.3 C 14.35 g/m*3 21.3 C 0 km/h
486 10-06-2004 01:07:01 21.3 C 14.35 g/m*3 21.3 C 0 km/h
487 10-06-2004 01:19:01 21 C 14.29 g/m*3 21 C 0 km/h
488 10-06-2004 01:31:01 20.8 C 14.12 g/m*3 20.8 C 0 km/h
489 10-06-2004 01:43:01 20.7 C 13.86 g/m*3 20.7 C 0 km/h
490 10-06-2004 01:55:01 20.4 C 13.27 g/m*3 20.4 C 0 km/h
491 10-06-2004 02:07:01 20.2 C 13.29 g/m*3 20.2 C 0 km/h
492 10-06-2004 02:19:01 20.1 C 13.39 g/m*3 20.1 C 0 km/h
493 10-06-2004 02:31:01 20 C 13.31 g/m*3 20 C 0 km/h
494 10-06-2004 02:43:01 19.8 C 13.66 g/m*3 19.8 C 0 km/h
495 10-06-2004 02:56:02 19.7 C 13.92 g/m*3 19.7 C 0 km/h
496 10-06-2004 03:08:02 19.7 C 13.75 g/m*3 19.7 C 0 km/h
497 10-06-2004 03:20:02 19.7 C 13.58 g/m*3 19.7 C 0 km/h
498 10-06-2004 03:32:01 19.5 C 13.59 g/m*3 19.5 C 0 km/h
499 10-06-2004 03:44:01 19.4 C 13.51 g/m*3 19.4 C 0 km/h
500 10-06-2004 03:56:01 19.2 C 13.52 g/m*3 19.2 C 0 km/h
Sensor: Nr:Datum:Temp:Abs-Feuchte:Windchill:Wind:
Aussen-T/F 501 10-06-2004 04:08:01 19.2 C 13.36 g/m*3 19.2 C 0 km/h
502 10-06-2004 04:20:01 19.1 C 13.28 g/m*3 19.1 C 0 km/h
503 10-06-2004 04:32:01 19.1 C 13.44 g/m*3 19.1 C 0 km/h
504 10-06-2004 04:44:01 18.8 C 13.37 g/m*3 18.8 C 0 km/h
505 10-06-2004 04:56:01 18.7 C 13.45 g/m*3 18.7 C 0 km/h
506 10-06-2004 05:08:01 18.7 C 13.45 g/m*3 18.7 C 0 km/h
507 10-06-2004 05:20:01 18.5 C 13.29 g/m*3 18.5 C 0 km/h
508 10-06-2004 05:32:01 18.6 C 13.37 g/m*3 18.6 C 0 km/h
509 10-06-2004 05:44:01 18.6 C 13.37 g/m*3 18.6 C 0 km/h
510 10-06-2004 05:56:01 18.5 C 13.29 g/m*3 18.5 C 0 km/h
511 10-06-2004 06:08:01 18.6 C 13.53 g/m*3 18.6 C 0 km/h
512 10-06-2004 06:20:01 18.6 C 13.53 g/m*3 18.6 C 0 km/h
513 10-06-2004 06:32:02 18.7 C 13.45 g/m*3 18.7 C 0 km/h
514 10-06-2004 06:44:02 19 C 13.53 g/m*3 19 C 0 km/h
515 10-06-2004 06:56:01 19.1 C 13.28 g/m*3 19.1 C 0 km/h
516 10-06-2004 07:08:02 19.4 C 13.51 g/m*3 19.4 C 0 km/h
517 10-06-2004 07:20:02 19.6 C 13.51 g/m*3 19.6 C 0 km/h
518 10-06-2004 07:32:02 19.7 C 13.41 g/m*3 19.7 C 0 km/h
519 10-06-2004 07:44:02 19.9 C 13.57 g/m*3 19.9 C 0 km/h
520 10-06-2004 07:56:01 20.3 C 13.54 g/m*3 20.3 C 0 km/h
521 10-06-2004 08:08:01 20.4 C 13.27 g/m*3 20.4 C 0 km/h
522 10-06-2004 08:20:01 20.8 C 13.4 g/m*3 20.8 C 0 km/h
523 10-06-2004 08:32:01 20.9 C 13.48 g/m*3 20.9 C 0 km/h
524 10-06-2004 08:44:01 21.7 C 13.93 g/m*3 21.7 C 0 km/h
525 10-06-2004 08:56:01 22.3 C 14.02 g/m*3 22.3 C 0 km/h
Sensor: Nr:Datum:Temp:Abs-Feuchte:Windchill:Wind:
Aussen-T/F 526 10-06-2004 09:08:01 22.4 C 13.7 g/m*3 22.4 C 0 km/h
527 10-06-2004 09:20:01 22.8 C 14.02 g/m*3 22.8 C 0 km/h
528 10-06-2004 09:32:01 23.5 C 13.96 g/m*3 23.5 C 0 km/h
529 10-06-2004 09:44:01 24.2 C 14.08 g/m*3 24.2 C 0 km/h
530 10-06-2004 09:56:01 24.2 C 13.86 g/m*3 24.2 C 0 km/h
531 10-06-2004 10:08:01 24.3 C 13.5 g/m*3 24.3 C 0 km/h
532 10-06-2004 10:20:01 24.6 C 13.5 g/m*3 24.6 C 0 km/h
533 10-06-2004 10:32:01 25 C 13.58 g/m*3 25 C 0 km/h
534 10-06-2004 10:44:01 25.6 C 13.81 g/m*3 25.6 C 0 km/h
535 10-06-2004 10:56:01 25.8 C 13.72 g/m*3 25.8 C 0 km/h
536 10-06-2004 11:08:01 26.6 C 13.84 g/m*3 26.6 C 0 km/h
537 10-06-2004 11:20:01 26.8 C 13.49 g/m*3 26.8 C 0 km/h
538 10-06-2004 11:32:01 27.2 C 13.53 g/m*3 27.2 C 0 km/h
539 10-06-2004 11:44:01 26.4 C 13.19 g/m*3 26.4 C 0 km/h
540 10-06-2004 11:56:01 28.1 C 13.13 g/m*3 28.1 C 0 km/h
541 10-06-2004 12:08:01 28 C 13.6 g/m*3 28 C 0 km/h
542 10-06-2004 12:20:01 29.6 C 13.06 g/m*3 29.6 C 0 km/h
543 10-06-2004 12:32:01 29.8 C 13.2 g/m*3 29.8 C 0 km/h
544 10-06-2004 12:44:01 29.3 C 13.43 g/m*3 29.3 C 0 km/h
545 10-06-2004 12:56:01 30.3 C 12.02 g/m*3 30.3 C 0 km/h
546 10-06-2004 13:08:01 28.7 C 13.56 g/m*3 28.7 C 0 km/h
547 10-06-2004 13:20:01 27.8 C 13.45 g/m*3 27.8 C 0 km/h
548 10-06-2004 13:32:01 26.6 C 13.59 g/m*3 26.6 C 0 km/h
549 10-06-2004 13:44:01 23.2 C 15.59 g/m*3 23.2 C 0 km/h
550 10-06-2004 13:56:01 22 C 16.3 g/m*3 22 C 0 km/h
Sensor: Nr:Datum:Temp:Abs-Feuchte:Windchill:Wind:
Aussen-T/F 551 10-06-2004 14:08:01 21.1 C 16.21 g/m*3 21.1 C 0 km/h
552 10-06-2004 14:20:01 20.9 C 16.21 g/m*3 20.9 C 0 km/h
553 10-06-2004 14:32:01 20 C 15.04 g/m*3 20 C 0 km/h
554 10-06-2004 14:44:01 19.4 C 14.85 g/m*3 19.4 C 0 km/h
555 10-06-2004 14:56:01 19.5 C 15.27 g/m*3 19.5 C 0 km/h
556 10-06-2004 15:08:01 19.4 C 15.18 g/m*3 19.4 C 0 km/h
557 10-06-2004 15:20:01 19 C 14.83 g/m*3 19 C 0 km/h
558 10-06-2004 15:32:01 19.6 C 15.53 g/m*3 19.6 C 0 km/h
559 10-06-2004 15:44:01 20.5 C 15.48 g/m*3 20.5 C 0 km/h
560 10-06-2004 15:56:01 21.1 C 16.03 g/m*3 21.1 C 0 km/h
561 10-06-2004 16:08:01 20.8 C 15.75 g/m*3 20.8 C 0 km/h
562 10-06-2004 16:20:01 20.3 C 15.3 g/m*3 20.3 C 0 km/h
563 10-06-2004 16:32:01 19.9 C 15.29 g/m*3 19.9 C 0 km/h
564 10-06-2004 16:44:01 19.9 C 15.46 g/m*3 19.9 C 0 km/h
565 10-06-2004 16:56:01 19.4 C 15.02 g/m*3 19.4 C 0 km/h
566 10-06-2004 17:08:01 19.5 C 15.27 g/m*3 19.5 C 0 km/h
567 10-06-2004 17:20:01 19.5 C 15.44 g/m*3 19.5 C 0 km/h
568 10-06-2004 17:32:01 19.5 C 15.44 g/m*3 19.5 C 0 km/h
569 10-06-2004 17:44:01 20 C 15.9 g/m*3 20 C 0 km/h
570 10-06-2004 17:56:01 19.9 C 15.81 g/m*3 19.9 C 0 km/h
571 10-06-2004 18:08:01 20.4 C 16.1 g/m*3 20.4 C 0 km/h
572 10-06-2004 18:20:01 21.9 C 17.56 g/m*3 21.9 C 0 km/h
573 10-06-2004 18:32:01 21.5 C 16.22 g/m*3 21.5 C 0 km/h
574 10-06-2004 18:44:01 23.3 C 16.31 g/m*3 23.3 C 0 km/h
575 10-06-2004 18:56:01 22.5 C 14.78 g/m*3 22.5 C 0 km/h
Sensor: Nr:Datum:Temp:Abs-Feuchte:Windchill:Wind:
Aussen-T/F 576 10-06-2004 19:08:01 22.2 C 15.12 g/m*3 22.2 C 0 km/h
577 10-06-2004 19:20:01 22.1 C 15.62 g/m*3 22.1 C 0 km/h
578 10-06-2004 19:32:01 21.6 C 15.55 g/m*3 21.6 C 0 km/h
579 10-06-2004 19:44:01 21.2 C 15.01 g/m*3 21.2 C 0 km/h
580 10-06-2004 19:56:01 20.7 C 14.76 g/m*3 20.7 C 0 km/h
581 10-06-2004 20:08:01 20.2 C 14.51 g/m*3 20.2 C 0 km/h
582 10-06-2004 20:20:01 19.7 C 14.6 g/m*3 19.7 C 0 km/h
583 10-06-2004 20:32:01 19.5 C 14.43 g/m*3 19.5 C 0 km/h
584 10-06-2004 20:44:01 19.5 C 14.43 g/m*3 19.5 C 0 km/h
585 10-06-2004 20:56:01 19.6 C 14.69 g/m*3 19.6 C 0 km/h
586 10-06-2004 21:08:01 19.5 C 14.6 g/m*3 19.5 C 0 km/h
587 10-06-2004 21:20:01 19.3 C 14.6 g/m*3 19.3 C 0 km/h
588 10-06-2004 21:32:01 19.2 C 14.84 g/m*3 19.2 C 0 km/h
589 10-06-2004 21:44:01 19.2 C 15.01 g/m*3 19.2 C 0 km/h
590 10-06-2004 21:56:01 19 C 14.83 g/m*3 19 C 0 km/h
591 10-06-2004 22:08:01 18.8 C 14.82 g/m*3 18.8 C 0 km/h
592 10-06-2004 22:20:01 18.7 C 14.73 g/m*3 18.7 C 0 km/h
593 10-06-2004 22:32:01 18.7 C 14.73 g/m*3 18.7 C 0 km/h
594 10-06-2004 22:44:01 18.5 C 14.56 g/m*3 18.5 C 0 km/h
595 10-06-2004 22:56:01 18.4 C 14.47 g/m*3 18.4 C 0 km/h
596 10-06-2004 23:08:01 18.4 C 14.47 g/m*3 18.4 C 0 km/h
597 10-06-2004 23:20:01 18.5 C 14.71 g/m*3 18.5 C 0 km/h
598 10-06-2004 23:32:01 18.5 C 14.71 g/m*3 18.5 C 0 km/h
599 10-06-2004 23:44:01 18.5 C 14.71 g/m*3 18.5 C 0 km/h
600 10-06-2004 23:56:01 18.5 C 14.71 g/m*3 18.5 C 0 km/h
Sensor: Nr:Datum:Temp:Abs-Feuchte:Windchill:Wind:
Aussen-T/F 601 11-06-2004 00:08:01 18.4 C 14.63 g/m*3 18.4 C 0 km/h
602 11-06-2004 00:20:02 18.4 C 14.63 g/m*3 18.4 C 0 km/h
603 11-06-2004 00:32:02 18.4 C 14.63 g/m*3 18.4 C 0 km/h
604 11-06-2004 00:44:02 18.5 C 14.71 g/m*3 18.5 C 0 km/h
605 11-06-2004 00:56:01 18.5 C 14.71 g/m*3 18.5 C 0 km/h
606 11-06-2004 01:08:01 18.6 C 14.8 g/m*3 18.6 C 0 km/h
607 11-06-2004 01:20:01 18.7 C 14.89 g/m*3 18.7 C 0 km/h
608 11-06-2004 01:32:01 18.7 C 14.89 g/m*3 18.7 C 0 km/h
609 11-06-2004 01:44:01 18.5 C 14.71 g/m*3 18.5 C 0 km/h
610 11-06-2004 01:56:01 18.3 C 14.38 g/m*3 18.3 C 0 km/h
611 11-06-2004 02:08:01 18.4 C 14.63 g/m*3 18.4 C 0 km/h
612 11-06-2004 02:20:01 18.4 C 14.63 g/m*3 18.4 C 0 km/h
613 11-06-2004 02:32:01 18.3 C 14.38 g/m*3 18.3 C 0 km/h
614 11-06-2004 02:44:01 18.4 C 14.31 g/m*3 18.4 C 0 km/h
615 11-06-2004 02:57:02 18.2 C 14.14 g/m*3 18.2 C 0 km/h
616 11-06-2004 03:09:02 17.9 C 14.05 g/m*3 17.9 C 0 km/h
617 11-06-2004 03:21:02 17.8 C 13.96 g/m*3 17.8 C 0 km/h
618 11-06-2004 03:33:01 17.5 C 13.72 g/m*3 17.5 C 0 km/h
619 11-06-2004 03:45:01 17.2 C 13.47 g/m*3 17.2 C 0 km/h
620 11-06-2004 03:57:01 17.2 C 13.47 g/m*3 17.2 C 0 km/h
621 11-06-2004 04:09:01 17.2 C 13.62 g/m*3 17.2 C 0 km/h
622 11-06-2004 04:21:01 17.6 C 14.1 g/m*3 17.6 C 0 km/h
623 11-06-2004 04:33:01 17.6 C 14.1 g/m*3 17.6 C 0 km/h
624 11-06-2004 04:45:01 17.7 C 14.18 g/m*3 17.7 C 0 km/h
625 11-06-2004 04:57:01 17.8 C 14.27 g/m*3 17.8 C 0 km/h
Sensor: Nr:Datum:Temp:Abs-Feuchte:Windchill:Wind:
Aussen-T/F 626 11-06-2004 05:09:01 17.8 C 14.12 g/m*3 17.8 C 0 km/h
627 11-06-2004 05:21:01 17.7 C 14.03 g/m*3 17.7 C 0 km/h
628 11-06-2004 05:33:01 17.7 C 13.88 g/m*3 17.7 C 0 km/h
629 11-06-2004 05:45:01 17.7 C 13.88 g/m*3 17.7 C 0 km/h
630 11-06-2004 05:57:01 17.8 C 13.96 g/m*3 17.8 C 0 km/h
631 11-06-2004 06:09:01 17.8 C 13.96 g/m*3 17.8 C 0 km/h
632 11-06-2004 06:21:02 17.9 C 13.89 g/m*3 17.9 C 0 km/h
633 11-06-2004 06:33:01 17.7 C 13.58 g/m*3 17.7 C 0 km/h
634 11-06-2004 06:45:01 17.5 C 13.27 g/m*3 17.5 C 0 km/h
635 11-06-2004 06:57:01 17.5 C 13.12 g/m*3 17.5 C 0 km/h
636 11-06-2004 07:09:01 17.4 C 12.6 g/m*3 17.4 C 0 km/h
637 11-06-2004 07:21:01 17.2 C 12.01 g/m*3 17.2 C 0 km/h
638 11-06-2004 07:33:01 17 C 11.87 g/m*3 17 C 0 km/h
639 11-06-2004 07:45:01 17.2 C 12.15 g/m*3 17.2 C 0 km/h
640 11-06-2004 07:57:01 17.5 C 12.37 g/m*3 17.5 C 0 km/h
641 11-06-2004 08:09:01 17.7 C 11.92 g/m*3 17.7 C 0 km/h
642 11-06-2004 08:21:02 17.9 C 11.91 g/m*3 17.9 C 0 km/h
643 11-06-2004 08:33:02 18 C 11.21 g/m*3 18 C 0 km/h
644 11-06-2004 08:45:01 18.3 C 11.1 g/m*3 18.3 C 0 km/h
645 11-06-2004 08:57:01 18.4 C 11.01 g/m*3 18.4 C 0 km/h
646 11-06-2004 09:09:01 18.6 C 11.14 g/m*3 18.6 C 0 km/h
647 11-06-2004 09:21:01 18.7 C 10.89 g/m*3 18.7 C 0 km/h
648 11-06-2004 09:33:01 18.9 C 10.85 g/m*3 18.9 C 0 km/h
649 11-06-2004 09:45:01 19.1 C 10.16 g/m*3 19.1 C 0 km/h
650 11-06-2004 09:57:01 19.3 C 10.28 g/m*3 19.3 C 0 km/h
Sensor: Nr:Datum:Temp:Abs-Feuchte:Windchill:Wind:
Aussen-T/F 651 11-06-2004 10:09:01 19.6 C 10.47 g/m*3 19.6 C 0 km/h
652 11-06-2004 10:21:01 19.1 C 9.67 g/m*3 19.1 C 0 km/h
653 11-06-2004 10:33:01 19.5 C 9.57 g/m*3 19.5 C 0 km/h
654 11-06-2004 10:45:01 20 C 10.2 g/m*3 20 C 0 km/h
655 11-06-2004 10:57:01 20 C 9.85 g/m*3 20 C 0 km/h
656 11-06-2004 11:09:01 20.7 C 10.26 g/m*3 20.7 C 0 km/h
657 11-06-2004 11:21:01 20.4 C 10.26 g/m*3 20.4 C 0 km/h
658 11-06-2004 11:33:01 20.4 C 9.91 g/m*3 20.4 C 0 km/h
659 11-06-2004 11:45:01 21.3 C 9.88 g/m*3 21.3 C 0 km/h
660 11-06-2004 11:57:01 23.3 C 10.04 g/m*3 23.3 C 0 km/h
661 11-06-2004 12:09:01 22.5 C 9.79 g/m*3 22.5 C 0 km/h
662 11-06-2004 12:21:01 21.7 C 9.92 g/m*3 21.7 C 0 km/h
663 11-06-2004 12:33:01 24 C 9.57 g/m*3 24 C 0 km/h
664 11-06-2004 12:45:01 23.8 C 9.03 g/m*3 23.8 C 0 km/h
665 11-06-2004 12:57:01 24.4 C 9.12 g/m*3 24.4 C 0 km/h
666 11-06-2004 13:09:01 24.7 C 8.83 g/m*3 24.7 C 0 km/h
667 11-06-2004 13:21:01 25.5 C 9 g/m*3 25.5 C 0 km/h
668 11-06-2004 13:33:01 24.2 C 9.46 g/m*3 24.2 C 0 km/h
669 11-06-2004 13:45:01 25 C 9.21 g/m*3 25 C 0 km/h
670 11-06-2004 13:57:01 24.8 C 9.1 g/m*3 24.8 C 0 km/h
671 11-06-2004 14:09:01 25.5 C 9 g/m*3 25.5 C 0 km/h
672 11-06-2004 14:21:01 24.1 C 9.63 g/m*3 24.1 C 0 km/h
673 11-06-2004 14:33:01 24.5 C 9.85 g/m*3 24.5 C 0 km/h
674 11-06-2004 14:45:01 24.1 C 9.85 g/m*3 24.1 C 0 km/h
675 11-06-2004 14:57:01 23.6 C 10 g/m*3 23.6 C 0 km/h
Sensor: Nr:Datum:Temp:Abs-Feuchte:Windchill:Wind:
Aussen-T/F 676 11-06-2004 15:09:01 19.1 C 12.29 g/m*3 19.1 C 0 km/h
677 11-06-2004 15:21:01 19.6 C 14.35 g/m*3 19.6 C 0 km/h
678 11-06-2004 15:33:01 20.1 C 14.08 g/m*3 20.1 C 0 km/h
679 11-06-2004 15:45:01 21.8 C 14.77 g/m*3 21.8 C 0 km/h
680 11-06-2004 15:57:01 22.6 C 14.26 g/m*3 22.6 C 0 km/h
681 11-06-2004 16:09:03 21.8 C 13.81 g/m*3 21.8 C 0 km/h
682 11-06-2004 16:21:01 21.1 C 14.19 g/m*3 21.1 C 0 km/h
683 11-06-2004 16:33:02 20 C 14.17 g/m*3 20 C 0 km/h
684 11-06-2004 16:45:01 19.1 C 13.93 g/m*3 19.1 C 0 km/h
685 11-06-2004 16:57:01 18.4 C 12.74 g/m*3 18.4 C 0 km/h
686 11-06-2004 17:09:01 17.6 C 13.05 g/m*3 17.6 C 0 km/h
687 11-06-2004 17:21:01 16.9 C 12.94 g/m*3 16.9 C 0 km/h
688 11-06-2004 17:33:01 16.8 C 13.15 g/m*3 16.8 C 0 km/h
689 11-06-2004 17:45:01 17.1 C 13.39 g/m*3 17.1 C 0 km/h
690 11-06-2004 17:57:01 17.4 C 13.63 g/m*3 17.4 C 0 km/h
691 11-06-2004 18:09:01 17.5 C 13.87 g/m*3 17.5 C 0 km/h
692 11-06-2004 18:21:01 17.9 C 14.05 g/m*3 17.9 C 0 km/h
693 11-06-2004 18:33:01 19.1 C 14.1 g/m*3 19.1 C 0 km/h
694 11-06-2004 18:45:01 19.4 C 14.01 g/m*3 19.4 C 0 km/h
695 11-06-2004 18:57:01 19.4 C 14.01 g/m*3 19.4 C 0 km/h
696 11-06-2004 19:09:01 18.9 C 13.77 g/m*3 18.9 C 0 km/h
697 11-06-2004 19:21:02 18.5 C 13.61 g/m*3 18.5 C 0 km/h
698 11-06-2004 19:33:01 17.7 C 13.28 g/m*3 17.7 C 0 km/h
699 11-06-2004 19:45:01 17.3 C 13.26 g/m*3 17.3 C 0 km/h
700 11-06-2004 19:57:01 17.2 C 13.33 g/m*3 17.2 C 0 km/h
Sensor: Nr:Datum:Temp:Abs-Feuchte:Windchill:Wind:
Aussen-T/F 701 11-06-2004 20:09:02 17.2 C 13.47 g/m*3 17.2 C 0 km/h
702 11-06-2004 20:21:02 17.2 C 13.47 g/m*3 17.2 C 0 km/h
703 11-06-2004 20:33:01 17.1 C 13.39 g/m*3 17.1 C 0 km/h
704 11-06-2004 20:45:03 16.7 C 13.22 g/m*3 16.7 C 0 km/h
705 11-06-2004 20:57:03 16.4 C 12.98 g/m*3 16.4 C 0 km/h
706 11-06-2004 21:09:02 16.5 C 13.06 g/m*3 16.5 C 0 km/h
707 11-06-2004 21:21:02 16.7 C 13.22 g/m*3 16.7 C 0 km/h
708 11-06-2004 21:33:02 16.8 C 13.3 g/m*3 16.8 C 0 km/h
709 11-06-2004 21:45:01 16.7 C 13.07 g/m*3 16.7 C 0 km/h
710 11-06-2004 21:57:01 16.6 C 13.14 g/m*3 16.6 C 0 km/h
711 11-06-2004 22:09:01 16.3 C 12.9 g/m*3 16.3 C 0 km/h
712 11-06-2004 22:21:01 16.2 C 12.82 g/m*3 16.2 C 0 km/h
713 11-06-2004 22:33:01 16.2 C 12.69 g/m*3 16.2 C 0 km/h
714 11-06-2004 22:45:01 16 C 12.53 g/m*3 16 C 0 km/h
715 11-06-2004 22:57:01 15.7 C 12.31 g/m*3 15.7 C 0 km/h
716 11-06-2004 23:09:01 15.5 C 12.29 g/m*3 15.5 C 0 km/h
717 11-06-2004 23:21:01 15.2 C 12.07 g/m*3 15.2 C 0 km/h
718 11-06-2004 23:33:01 15.3 C 12.14 g/m*3 15.3 C 0 km/h
719 11-06-2004 23:45:01 15.5 C 12.43 g/m*3 15.5 C 0 km/h
720 11-06-2004 23:57:01 15.4 C 12.35 g/m*3 15.4 C 0 km/h
721 12-06-2004 00:09:01 15.5 C 12.43 g/m*3 15.5 C 0 km/h
722 12-06-2004 00:21:01 15.6 C 12.5 g/m*3 15.6 C 0 km/h
723 12-06-2004 00:33:01 15.6 C 12.5 g/m*3 15.6 C 0 km/h
724 12-06-2004 00:45:01 15.4 C 12.35 g/m*3 15.4 C 0 km/h
725 12-06-2004 00:57:01 15.2 C 12.2 g/m*3 15.2 C 0 km/h
Sensor: Nr:Datum:Temp:Abs-Feuchte:Windchill:Wind:
Aussen-T/F 726 12-06-2004 01:09:01 15.1 C 12.13 g/m*3 15.1 C 0 km/h
727 12-06-2004 01:21:01 15.1 C 12.13 g/m*3 15.1 C 0 km/h
728 12-06-2004 01:33:01 15.1 C 12.13 g/m*3 15.1 C 0 km/h
729 12-06-2004 01:45:01 15.2 C 12.2 g/m*3 15.2 C 0 km/h
730 12-06-2004 01:57:02 15.1 C 12.13 g/m*3 15.1 C 0 km/h
731 12-06-2004 02:09:01 14.8 C 11.91 g/m*3 14.8 C 0 km/h
732 12-06-2004 02:21:01 14.9 C 11.98 g/m*3 14.9 C 0 km/h
733 12-06-2004 02:33:01 14.8 C 11.91 g/m*3 14.8 C 0 km/h
734 12-06-2004 02:46:02 14.8 C 11.78 g/m*3 14.8 C 0 km/h
735 12-06-2004 02:58:02 14.6 C 11.64 g/m*3 14.6 C 0 km/h
736 12-06-2004 03:10:03 14.2 C 11.23 g/m*3 14.2 C 0 km/h
737 12-06-2004 03:22:03 13.9 C 11.15 g/m*3 13.9 C 0 km/h
738 12-06-2004 03:34:01 13.8 C 11.08 g/m*3 13.8 C 0 km/h
739 12-06-2004 03:46:01 13.9 C 11.27 g/m*3 13.9 C 0 km/h
740 12-06-2004 03:58:01 14 C 11.22 g/m*3 14 C 0 km/h
741 12-06-2004 04:10:01 13.7 C 11.01 g/m*3 13.7 C 0 km/h
742 12-06-2004 04:22:01 13.5 C 10.88 g/m*3 13.5 C 0 km/h
743 12-06-2004 04:34:01 13.5 C 10.76 g/m*3 13.5 C 0 km/h
744 12-06-2004 04:46:01 13.6 C 10.83 g/m*3 13.6 C 0 km/h
745 12-06-2004 04:58:01 13.4 C 10.69 g/m*3 13.4 C 0 km/h
746 12-06-2004 05:10:01 13.3 C 10.51 g/m*3 13.3 C 0 km/h
747 12-06-2004 05:22:01 13.3 C 10.51 g/m*3 13.3 C 0 km/h
748 12-06-2004 05:34:01 13.2 C 10.45 g/m*3 13.2 C 0 km/h
749 12-06-2004 05:46:01 13.2 C 10.45 g/m*3 13.2 C 0 km/h
750 12-06-2004 05:58:01 13.2 C 10.45 g/m*3 13.2 C 0 km/h
Sensor: Nr:Datum:Temp:Abs-Feuchte:Windchill:Wind:
Aussen-T/F 751 12-06-2004 06:10:01 13.3 C 10.51 g/m*3 13.3 C 0 km/h
752 12-06-2004 06:22:01 13.2 C 10.33 g/m*3 13.2 C 0 km/h
753 12-06-2004 06:34:01 13.5 C 10.53 g/m*3 13.5 C 0 km/h
754 12-06-2004 06:46:01 13.8 C 10.6 g/m*3 13.8 C 0 km/h
755 12-06-2004 06:58:01 14 C 10.25 g/m*3 14 C 0 km/h
756 12-06-2004 07:10:01 13.8 C 10.01 g/m*3 13.8 C 0 km/h
757 12-06-2004 07:22:01 13.9 C 10.19 g/m*3 13.9 C 0 km/h
758 12-06-2004 07:34:01 13.9 C 10.19 g/m*3 13.9 C 0 km/h
759 12-06-2004 07:46:01 14 C 10.01 g/m*3 14 C 0 km/h
760 12-06-2004 07:58:01 14 C 10.01 g/m*3 14 C 0 km/h
761 12-06-2004 08:10:01 14.1 C 10.07 g/m*3 14.1 C 0 km/h
762 12-06-2004 08:22:01 14.2 C 10.14 g/m*3 14.2 C 0 km/h
763 12-06-2004 08:34:01 14.1 C 9.95 g/m*3 14.1 C 0 km/h
764 12-06-2004 08:46:01 14.1 C 10.07 g/m*3 14.1 C 0 km/h
765 12-06-2004 08:58:01 14.3 C 9.95 g/m*3 14.3 C 0 km/h
766 12-06-2004 09:10:01 14.8 C 9.88 g/m*3 14.8 C 0 km/h
767 12-06-2004 09:22:01 15.2 C 9.73 g/m*3 15.2 C 0 km/h
768 12-06-2004 09:34:01 15.5 C 10.05 g/m*3 15.5 C 0 km/h
769 12-06-2004 09:46:01 16 C 10.08 g/m*3 16 C 0 km/h
770 12-06-2004 09:58:01 16.4 C 9.77 g/m*3 16.4 C 0 km/h
771 12-06-2004 10:10:01 16.9 C 9.35 g/m*3 16.9 C 0 km/h
772 12-06-2004 10:22:01 16.4 C 9.07 g/m*3 16.4 C 0 km/h
773 12-06-2004 10:34:01 16.6 C 9.46 g/m*3 16.6 C 0 km/h
774 12-06-2004 10:46:02 17 C 8.97 g/m*3 17 C 0 km/h
775 12-06-2004 10:58:02 17.4 C 8.89 g/m*3 17.4 C 0 km/h
Sensor: Nr:Datum:Temp:Abs-Feuchte:Windchill:Wind:
Aussen-T/F 776 12-06-2004 11:10:01 17 C 8.68 g/m*3 17 C 0 km/h
777 12-06-2004 11:22:01 17.2 C 9.08 g/m*3 17.2 C 0 km/h
778 12-06-2004 11:34:01 17.6 C 9.3 g/m*3 17.6 C 0 km/h
779 12-06-2004 11:46:01 18.8 C 8.37 g/m*3 18.8 C 0 km/h
780 12-06-2004 11:58:01 20 C 8.12 g/m*3 20 C 0 km/h
781 12-06-2004 12:10:01 19.7 C 7.64 g/m*3 19.7 C 0 km/h
782 12-06-2004 12:22:01 19.1 C 7.54 g/m*3 19.1 C 0 km/h
783 12-06-2004 12:34:01 21 C 7.33 g/m*3 21 C 0 km/h
784 12-06-2004 12:46:01 21.7 C 7.06 g/m*3 21.7 C 0 km/h
785 12-06-2004 12:58:01 19.6 C 7.6 g/m*3 19.6 C 0 km/h
786 12-06-2004 13:10:01 21.1 C 7.19 g/m*3 21.1 C 0 km/h
787 12-06-2004 13:22:01 17.7 C 8.15 g/m*3 17.7 C 0 km/h
788 12-06-2004 13:34:01 15.2 C 8.31 g/m*3 15.2 C 0 km/h
789 12-06-2004 13:46:01 15.6 C 8.78 g/m*3 15.6 C 0 km/h
790 12-06-2004 13:58:01 14.8 C 7.98 g/m*3 14.8 C 0 km/h
791 12-06-2004 14:10:01 14.6 C 8.63 g/m*3 14.6 C 0 km/h
792 12-06-2004 14:22:01 14.9 C 8.41 g/m*3 14.9 C 0 km/h
793 12-06-2004 14:34:01 15.4 C 7.75 g/m*3 15.4 C 0 km/h
794 12-06-2004 14:46:01 15.5 C 8.33 g/m*3 15.5 C 0 km/h
795 12-06-2004 14:58:01 16.2 C 8.14 g/m*3 16.2 C 0 km/h
796 12-06-2004 15:10:01 18.5 C 9.02 g/m*3 18.5 C 0 km/h
797 12-06-2004 15:22:01 19.6 C 8.27 g/m*3 19.6 C 0 km/h
798 12-06-2004 15:34:01 20.1 C 8.17 g/m*3 20.1 C 0 km/h
799 12-06-2004 15:46:01 19.1 C 8.03 g/m*3 19.1 C 0 km/h
800 12-06-2004 15:58:01 18.5 C 8.54 g/m*3 18.5 C 0 km/h
Sensor: Nr:Datum:Temp:Abs-Feuchte:Windchill:Wind:
Aussen-T/F 801 12-06-2004 16:10:01 18.8 C 8.54 g/m*3 18.8 C 0 km/h
802 12-06-2004 16:22:01 18.3 C 8.44 g/m*3 18.3 C 0 km/h
803 12-06-2004 16:34:01 17 C 7.81 g/m*3 17 C 0 km/h
804 12-06-2004 16:46:01 17.7 C 8.15 g/m*3 17.7 C 0 km/h
805 12-06-2004 16:58:01 16.6 C 9.61 g/m*3 16.6 C 0 km/h
806 12-06-2004 17:10:02 16.4 C 10.05 g/m*3 16.4 C 0 km/h
807 12-06-2004 17:22:01 16.7 C 10.52 g/m*3 16.7 C 0 km/h
808 12-06-2004 17:34:01 18.1 C 9.12 g/m*3 18.1 C 0 km/h
809 12-06-2004 17:46:01 18.5 C 8.54 g/m*3 18.5 C 0 km/h
810 12-06-2004 17:58:01 18.1 C 8.96 g/m*3 18.1 C 0 km/h
811 12-06-2004 18:10:01 17.9 C 8.7 g/m*3 17.9 C 0 km/h
812 12-06-2004 18:22:01 17.5 C 8.05 g/m*3 17.5 C 0 km/h
813 12-06-2004 18:34:01 18.1 C 8.34 g/m*3 18.1 C 0 km/h
814 12-06-2004 18:46:01 17.3 C 7.96 g/m*3 17.3 C 0 km/h
815 12-06-2004 18:58:01 17.3 C 8.54 g/m*3 17.3 C 0 km/h
816 12-06-2004 19:10:01 16.9 C 8.92 g/m*3 16.9 C 0 km/h
817 12-06-2004 19:22:02 17 C 8.97 g/m*3 17 C 0 km/h
818 12-06-2004 19:34:01 16.5 C 8.99 g/m*3 16.5 C 0 km/h
819 12-06-2004 19:46:01 16.2 C 8.96 g/m*3 16.2 C 0 km/h
820 12-06-2004 19:58:01 15.8 C 9.02 g/m*3 15.8 C 0 km/h
821 12-06-2004 20:10:01 15.7 C 8.96 g/m*3 15.7 C 0 km/h
822 12-06-2004 20:22:01 15.1 C 9.16 g/m*3 15.1 C 0 km/h
823 12-06-2004 20:34:01 15 C 9.36 g/m*3 15 C 0 km/h
824 12-06-2004 20:46:01 15.5 C 8.99 g/m*3 15.5 C 0 km/h
825 12-06-2004 20:58:01 15.4 C 8.93 g/m*3 15.4 C 0 km/h
Sensor: Nr:Datum:Temp:Abs-Feuchte:Windchill:Wind:
Aussen-T/F 826 12-06-2004 21:10:02 15.5 C 8.99 g/m*3 15.5 C 0 km/h
827 12-06-2004 21:22:02 15 C 8.85 g/m*3 15 C 0 km/h
828 12-06-2004 21:34:02 14.5 C 8.95 g/m*3 14.5 C 0 km/h
829 12-06-2004 21:46:02 14 C 8.68 g/m*3 14 C 0 km/h
830 12-06-2004 21:58:02 13.7 C 8.64 g/m*3 13.7 C 0 km/h
831 12-06-2004 22:10:02 13.5 C 8.66 g/m*3 13.5 C 0 km/h
832 12-06-2004 22:22:02 13.3 C 8.55 g/m*3 13.3 C 0 km/h
833 12-06-2004 22:34:02 13.1 C 8.44 g/m*3 13.1 C 0 km/h
834 12-06-2004 22:46:01 13 C 8.39 g/m*3 13 C 0 km/h
835 12-06-2004 22:58:01 13 C 8.51 g/m*3 13 C 0 km/h
836 12-06-2004 23:10:01 13.1 C 8.44 g/m*3 13.1 C 0 km/h
837 12-06-2004 23:22:01 13 C 8.51 g/m*3 13 C 0 km/h
838 12-06-2004 23:34:01 13.4 C 8.83 g/m*3 13.4 C 0 km/h
839 12-06-2004 23:46:01 13.2 C 8.84 g/m*3 13.2 C 0 km/h
840 12-06-2004 23:58:01 13.2 C 8.84 g/m*3 13.2 C 0 km/h

Legende:
   Min
   Max


Maximal/Minimal-Werte vom 06.06.2004 - 12.06.2004

Sensor Min Max Avg
Temp
(Aussen-T/F)
8.8 °C
06-06-2004  04:52:01
32.5 °C
08-06-2004  18:06:02
20.24 °C
Abs-Feuchte
(Aussen-T/F)
6.84 g/m*3
07-06-2004  14:05:02
17.56 g/m*3
10-06-2004  18:20:01
10.89 g/m*3
Windchill
(Aussen-T/F)
8.8 C
06-06-2004  04:52:01
32.5 C
08-06-2004  18:06:02
20.21 C

Die Daten stammen von einer Davis Vantage Pro 2 Wetter-Station und werden unter Linux mit der Software wview2wettercgi und aufbereitet. Alle Angaben erfolgen ohne Gewähr für ihre Vollständigkeit oder Richtigkeit.
Kontakt: Rainer Krienke krienke@uni-koblenz.de . Meine Webseiten an der Uni Koblenz oder privat.
Version: $Revision: 0.78 $